createdAt,value
2023-02-12T00:01:36.154Z,5.80
2023-02-12T00:04:04.952Z,5.70
2023-02-12T00:06:33.185Z,5.70
2023-02-12T00:09:01.469Z,5.70
2023-02-12T00:11:30.704Z,5.70
2023-02-12T00:14:00.529Z,5.70
2023-02-12T00:16:30.411Z,5.70
2023-02-12T00:19:00.060Z,5.70
2023-02-12T00:21:28.541Z,5.70
2023-02-12T00:23:57.237Z,5.70
2023-02-12T00:26:26.196Z,5.80
2023-02-12T00:28:55.306Z,5.70
2023-02-12T00:31:28.129Z,5.70
2023-02-12T00:33:59.282Z,5.70
2023-02-12T00:36:31.234Z,5.70
2023-02-12T00:39:01.179Z,5.70
2023-02-12T00:41:29.561Z,5.60
2023-02-12T00:43:58.212Z,5.60
2023-02-12T00:46:27.931Z,5.50
2023-02-12T00:48:56.216Z,5.50
2023-02-12T00:51:24.450Z,5.60
2023-02-12T00:53:52.658Z,5.60
2023-02-12T00:56:21.041Z,5.60
2023-02-12T00:58:51.071Z,5.60
2023-02-12T01:01:19.825Z,5.60
2023-02-12T01:03:49.575Z,5.60
2023-02-12T01:06:17.815Z,5.60
2023-02-12T01:11:33.599Z,5.70
2023-02-12T01:14:01.784Z,5.70
2023-02-12T01:16:31.932Z,5.60
2023-02-12T01:19:01.775Z,5.60
2023-02-12T01:21:33.038Z,5.60
2023-02-12T01:24:02.492Z,5.50
2023-02-12T01:26:32.866Z,5.50
2023-02-12T01:29:03.575Z,5.40
2023-02-12T01:31:34.616Z,5.50
2023-02-12T01:34:06.622Z,5.50
2023-02-12T01:36:35.519Z,5.60
2023-02-12T01:39:05.708Z,5.60
2023-02-12T01:41:38.282Z,5.60
2023-02-12T01:44:15.549Z,5.70
2023-02-12T01:46:45.681Z,5.70
2023-02-12T01:49:22.790Z,5.60
2023-02-12T01:51:55.266Z,5.60
2023-02-12T01:54:26.769Z,5.60
2023-02-12T01:56:55.503Z,5.60
2023-02-12T01:59:23.883Z,5.60
2023-02-12T02:01:52.332Z,5.60
2023-02-12T02:04:29.760Z,5.70
2023-02-12T02:07:01.452Z,5.70
2023-02-12T02:09:32.113Z,5.60
2023-02-12T02:12:18.178Z,5.70
2023-02-12T02:14:48.665Z,5.60
2023-02-12T02:17:52.916Z,5.60
2023-02-12T02:21:04.874Z,5.60
2023-02-12T02:23:58.014Z,5.60
2023-02-12T02:27:15.527Z,5.60
2023-02-12T02:30:33.881Z,5.60
2023-02-12T02:33:22.685Z,5.50
2023-02-12T02:36:00.243Z,5.60
2023-02-12T02:38:37.506Z,5.60
2023-02-12T02:41:10.926Z,5.50
2023-02-12T02:43:45.262Z,5.50
2023-02-12T02:46:19.415Z,5.50
2023-02-12T02:48:53.923Z,5.50
2023-02-12T02:51:27.498Z,5.50
2023-02-12T02:54:05.049Z,5.40
2023-02-12T02:56:37.272Z,5.50
2023-02-12T02:59:08.793Z,5.50
2023-02-12T03:01:44.070Z,5.50
2023-02-12T03:04:21.095Z,5.50
2023-02-12T03:06:56.305Z,5.40
2023-02-12T03:09:28.781Z,5.40
2023-02-12T03:12:02.641Z,5.40
2023-02-12T03:14:34.123Z,5.30
2023-02-12T03:17:06.845Z,5.30
2023-02-12T03:19:42.987Z,5.20
2023-02-12T03:22:15.068Z,5.20
2023-02-12T03:24:47.959Z,5.30
2023-02-12T03:27:22.193Z,5.30
2023-02-12T03:29:50.447Z,5.40
2023-02-12T03:32:31.271Z,5.40
2023-02-12T03:35:11.795Z,5.40
2023-02-12T03:37:44.947Z,5.30
2023-02-12T03:40:19.194Z,5.40
2023-02-12T03:42:56.696Z,5.40
2023-02-12T03:45:42.042Z,5.40
2023-02-12T03:48:15.055Z,5.40
2023-02-12T03:50:53.346Z,5.40
2023-02-12T03:53:21.722Z,5.40
2023-02-12T03:55:56.256Z,5.50
2023-02-12T03:58:29.454Z,5.50
2023-02-12T04:00:58.678Z,5.40
2023-02-12T04:03:27.040Z,5.40
2023-02-12T04:05:57.046Z,5.40
2023-02-12T04:08:27.180Z,5.40
2023-02-12T04:11:10.334Z,5.40
2023-02-12T04:13:50.074Z,5.40
2023-02-12T04:16:26.917Z,5.40
2023-02-12T04:18:56.496Z,5.40
2023-02-12T04:21:44.951Z,5.40
2023-02-12T04:24:23.624Z,5.40
2023-02-12T04:26:59.047Z,5.40
2023-02-12T04:29:36.719Z,5.40
2023-02-12T04:32:10.377Z,5.40
2023-02-12T04:34:48.129Z,5.40
2023-02-12T04:37:21.698Z,5.40
2023-02-12T04:39:51.377Z,5.50
2023-02-12T04:42:19.827Z,5.50
2023-02-12T04:44:47.994Z,5.50
2023-02-12T04:47:18.062Z,5.50
2023-02-12T04:49:46.243Z,5.40
2023-02-12T04:52:14.392Z,5.40
2023-02-12T04:54:44.084Z,5.40
2023-02-12T04:57:12.424Z,5.30
2023-02-12T04:59:40.536Z,5.30
2023-02-12T05:02:08.716Z,5.30
2023-02-12T05:04:37.056Z,5.30
2023-02-12T05:07:05.174Z,5.40
2023-02-12T05:09:34.701Z,5.40
2023-02-12T05:12:04.326Z,5.40
2023-02-12T05:14:32.496Z,5.40
2023-02-12T05:17:00.798Z,5.40
2023-02-12T05:19:28.911Z,5.40
2023-02-12T05:21:57.236Z,5.40
2023-02-12T05:24:25.860Z,5.40
2023-02-12T05:26:54.425Z,5.40
2023-02-12T05:29:23.995Z,5.40
2023-02-12T05:31:52.283Z,5.40
2023-02-12T05:34:20.718Z,5.40
2023-02-12T05:36:49.914Z,5.40
2023-02-12T05:39:18.022Z,5.40
2023-02-12T05:41:46.292Z,5.30
2023-02-12T05:44:15.056Z,5.30
2023-02-12T05:46:44.933Z,5.30
2023-02-12T05:49:13.202Z,5.30
2023-02-12T05:51:41.449Z,5.20
2023-02-12T05:54:09.637Z,5.20
2023-02-12T05:56:43.280Z,5.20
2023-02-12T05:59:15.974Z,5.10
2023-02-12T06:01:47.804Z,5.10
2023-02-12T06:04:19.317Z,5.00
2023-02-12T06:06:47.989Z,5.00
2023-02-12T06:09:16.554Z,4.90
2023-02-12T06:11:45.265Z,4.90
2023-02-12T06:14:16.261Z,4.80
2023-02-12T06:16:49.599Z,4.80
2023-02-12T06:19:18.448Z,4.80
2023-02-12T06:21:47.049Z,4.80
2023-02-12T06:24:17.940Z,4.80
2023-02-12T06:26:46.621Z,4.80
2023-02-12T06:29:15.002Z,4.70
2023-02-12T06:31:43.867Z,4.70
2023-02-12T06:34:17.916Z,4.70
2023-02-12T06:36:48.074Z,4.70
2023-02-12T06:39:17.956Z,4.70
2023-02-12T06:41:46.430Z,4.60
2023-02-12T06:44:15.005Z,4.60
2023-02-12T06:46:43.276Z,4.60
2023-02-12T06:49:14.480Z,4.60
2023-02-12T06:51:43.336Z,4.60
2023-02-12T06:54:15.454Z,4.60
2023-02-12T06:56:43.867Z,4.60
2023-02-12T06:59:16.448Z,4.70
2023-02-12T07:01:45.130Z,4.70
2023-02-12T07:04:17.849Z,4.80
2023-02-12T07:06:46.806Z,4.80
2023-02-12T07:09:15.311Z,4.90
2023-02-12T07:11:43.474Z,4.90
2023-02-12T07:14:16.473Z,4.90
2023-02-12T07:16:45.080Z,5.00
2023-02-12T07:19:16.316Z,5.00
2023-02-12T07:21:45.816Z,5.00
2023-02-12T07:24:15.899Z,5.10
2023-02-12T07:26:44.123Z,5.10
2023-02-12T07:29:12.786Z,5.20
2023-02-12T07:31:41.600Z,5.20
2023-02-12T07:34:11.830Z,5.30
2023-02-12T07:36:40.036Z,5.30
2023-02-12T07:39:11.465Z,5.30
2023-02-12T07:41:39.590Z,5.30
2023-02-12T07:44:11.906Z,5.40
2023-02-12T07:46:42.559Z,5.40
2023-02-12T07:49:15.464Z,5.50
2023-02-12T07:51:44.475Z,5.50
2023-02-12T07:54:14.672Z,5.60
2023-02-12T07:56:47.827Z,5.60
2023-02-12T07:59:18.631Z,5.60
2023-02-12T08:01:49.380Z,5.70
2023-02-12T08:04:20.404Z,5.70
2023-02-12T08:06:51.423Z,5.80
2023-02-12T08:09:23.834Z,5.80
2023-02-12T08:11:52.488Z,5.80
2023-02-12T08:14:22.961Z,5.90
2023-02-12T08:16:52.262Z,5.80
2023-02-12T08:19:25.748Z,5.80
2023-02-12T08:21:56.145Z,5.90
2023-02-12T08:24:26.372Z,5.90
2023-02-12T08:26:54.739Z,6.00
2023-02-12T08:29:26.146Z,6.10
2023-02-12T08:31:59.210Z,6.10
2023-02-12T08:34:30.721Z,6.20
2023-02-12T08:36:59.756Z,6.20
2023-02-12T08:39:30.978Z,6.20
2023-02-12T08:42:00.715Z,6.20
2023-02-12T08:44:29.611Z,6.20
2023-02-12T08:46:57.942Z,6.30
2023-02-12T08:49:29.626Z,6.40
2023-02-12T08:51:59.599Z,6.50
2023-02-12T08:54:31.628Z,6.60
2023-02-12T08:57:02.150Z,6.70
2023-02-12T08:59:31.146Z,6.80
2023-02-12T09:02:00.541Z,6.90
2023-02-12T09:04:30.410Z,7.00
2023-02-12T09:06:58.784Z,7.00
2023-02-12T09:09:28.454Z,7.10
2023-02-12T09:11:56.790Z,7.30
2023-02-12T09:14:25.402Z,7.30
2023-02-12T09:16:55.016Z,7.50
2023-02-12T09:19:23.903Z,7.60
2023-02-12T09:21:55.808Z,7.70
2023-02-12T09:24:24.943Z,7.80
2023-02-12T09:26:54.570Z,7.80
2023-02-12T09:29:22.854Z,8.00
2023-02-12T09:31:51.257Z,8.10
2023-02-12T09:34:19.731Z,8.20
2023-02-12T09:36:47.880Z,8.40
2023-02-12T09:39:16.016Z,8.50
2023-02-12T09:42:31.565Z,8.70
2023-02-12T09:45:09.463Z,8.80
2023-02-12T09:47:44.038Z,8.90
2023-02-12T09:50:37.357Z,9.10
2023-02-12T09:53:09.758Z,9.30
2023-02-12T09:55:38.518Z,9.40
2023-02-12T09:58:15.503Z,9.50
2023-02-12T10:00:44.604Z,9.60
2023-02-12T10:03:18.818Z,9.70
2023-02-12T10:05:52.502Z,9.80
2023-02-12T10:08:56.467Z,9.80
2023-02-12T10:11:50.408Z,9.80
2023-02-12T10:14:58.434Z,9.90
2023-02-12T10:17:39.365Z,9.90
2023-02-12T10:20:34.736Z,10.00
2023-02-12T10:23:28.614Z,10.10
2023-02-12T10:25:59.976Z,10.10
2023-02-12T10:28:34.483Z,10.20
2023-02-12T10:31:09.500Z,10.30
2023-02-12T10:33:43.898Z,10.40
2023-02-12T10:36:27.461Z,10.30
2023-02-12T10:39:03.610Z,10.30
2023-02-12T10:41:34.049Z,10.40
2023-02-12T10:44:02.495Z,10.30
2023-02-12T10:46:33.002Z,10.40
2023-02-12T10:49:01.833Z,10.60
2023-02-12T10:52:00.389Z,10.70
2023-02-12T10:54:42.139Z,10.80
2023-02-12T10:57:16.288Z,10.80
2023-02-12T10:59:46.983Z,10.80
2023-02-12T11:02:29.626Z,10.90
2023-02-12T11:05:00.373Z,10.80
2023-02-12T11:07:29.748Z,10.80
2023-02-12T11:09:59.032Z,10.90
2023-02-12T11:12:36.793Z,11.00
2023-02-12T11:15:15.667Z,11.00
2023-02-12T11:17:56.821Z,11.00
2023-02-12T11:20:28.515Z,11.00
2023-02-12T11:22:59.783Z,11.00
2023-02-12T11:25:31.841Z,11.00
2023-02-12T11:28:16.702Z,11.00
2023-02-12T11:30:55.651Z,11.00
2023-02-12T11:33:33.252Z,11.20
2023-02-12T11:36:07.510Z,11.20
2023-02-12T11:38:39.897Z,11.40
2023-02-12T11:41:22.959Z,11.60
2023-02-12T11:43:52.131Z,11.60
2023-02-12T11:46:24.072Z,11.70
2023-02-12T11:48:58.078Z,11.70
2023-02-12T11:51:30.284Z,11.90
2023-02-12T11:54:01.283Z,12.00
2023-02-12T11:56:43.795Z,12.10
2023-02-12T11:59:35.335Z,12.00
2023-02-12T12:02:18.776Z,12.00
2023-02-12T12:04:51.316Z,12.10
2023-02-12T12:07:25.411Z,12.50
2023-02-12T12:10:00.922Z,12.70
2023-02-12T12:12:40.068Z,12.80
2023-02-12T12:15:36.456Z,12.90
2023-02-12T12:18:31.643Z,12.80
2023-02-12T12:21:10.801Z,12.40
2023-02-12T12:23:43.923Z,12.40
2023-02-12T12:26:19.976Z,12.50
2023-02-12T12:28:56.185Z,12.40
2023-02-12T12:31:30.267Z,12.30
2023-02-12T12:34:06.207Z,12.50
2023-02-12T12:37:15.372Z,13.70
2023-02-12T12:40:02.425Z,13.80
2023-02-12T12:43:10.862Z,13.60
2023-02-12T12:46:05.839Z,13.30
2023-02-12T12:48:57.084Z,13.10
2023-02-12T12:51:41.762Z,12.80
2023-02-12T12:54:28.325Z,13.50
2023-02-12T12:57:06.468Z,13.40
2023-02-12T13:00:05.238Z,13.10
2023-02-12T13:03:17.126Z,12.80
2023-02-12T13:06:19.444Z,14.10
2023-02-12T13:09:26.050Z,14.40
2023-02-12T13:12:25.269Z,14.50
2023-02-12T13:15:01.119Z,14.30
2023-02-12T13:17:36.808Z,13.80
2023-02-12T13:20:16.133Z,13.60
2023-02-12T13:22:49.378Z,14.30
2023-02-12T13:25:27.779Z,15.00
2023-02-12T13:27:58.760Z,15.60
2023-02-12T13:30:33.939Z,16.10
2023-02-12T13:33:11.681Z,16.60
2023-02-12T13:35:46.246Z,16.80
2023-02-12T13:38:21.975Z,17.50
2023-02-12T13:40:55.594Z,17.90
2023-02-12T13:43:46.341Z,18.30
2023-02-12T13:46:26.230Z,18.40
2023-02-12T13:49:07.412Z,18.60
2023-02-12T13:51:45.246Z,18.40
2023-02-12T13:54:38.450Z,18.70
2023-02-12T13:57:15.541Z,18.50
2023-02-12T13:59:47.370Z,18.20
2023-02-12T14:02:49.245Z,18.70
2023-02-12T14:05:33.015Z,18.30
2023-02-12T14:08:07.152Z,17.80
2023-02-12T14:10:39.223Z,18.10
2023-02-12T14:13:20.974Z,18.20
2023-02-12T14:15:52.069Z,18.40
2023-02-12T14:18:31.938Z,18.40
2023-02-12T14:21:45.419Z,18.70
2023-02-12T14:24:53.395Z,18.60
2023-02-12T14:27:44.920Z,18.80
2023-02-12T14:30:35.506Z,19.10
2023-02-12T14:33:26.866Z,19.30
2023-02-12T14:36:19.620Z,19.00
2023-02-12T14:39:05.963Z,18.80
2023-02-12T14:41:43.813Z,19.00
2023-02-12T14:44:47.611Z,18.90
2023-02-12T14:47:53.814Z,18.30
2023-02-12T14:50:32.697Z,18.50
2023-02-12T14:53:09.344Z,18.20
2023-02-12T14:55:37.773Z,18.30
2023-02-12T14:58:15.385Z,18.20
2023-02-12T15:00:49.217Z,18.20
2023-02-12T15:03:28.461Z,17.50
2023-02-12T15:06:04.493Z,16.30
2023-02-12T15:08:40.205Z,15.50
2023-02-12T15:11:24.910Z,15.00
2023-02-12T15:13:59.716Z,14.20
2023-02-12T15:16:50.985Z,13.70
2023-02-12T15:19:40.212Z,13.40
2023-02-12T15:22:20.510Z,13.00
2023-02-12T15:24:48.851Z,12.60
2023-02-12T15:27:18.377Z,12.30
2023-02-12T15:29:49.448Z,12.10
2023-02-12T15:32:26.729Z,11.80
2023-02-12T15:34:57.459Z,11.60
2023-02-12T15:37:29.629Z,11.40
2023-02-12T15:40:01.680Z,11.30
2023-02-12T15:42:33.953Z,11.20
2023-02-12T15:45:23.154Z,11.10
2023-02-12T15:48:03.506Z,10.90
2023-02-12T15:50:34.469Z,10.80
2023-02-12T15:53:03.996Z,10.70
2023-02-12T15:55:38.835Z,10.60
2023-02-12T15:58:22.990Z,10.50
2023-02-12T16:00:52.824Z,10.40
2023-02-12T16:03:23.869Z,10.30
2023-02-12T16:05:57.884Z,10.20
2023-02-12T16:08:26.708Z,10.10
2023-02-12T16:10:55.968Z,10.00
2023-02-12T16:13:31.637Z,10.00
2023-02-12T16:16:14.351Z,9.80
2023-02-12T16:19:07.584Z,9.80
2023-02-12T16:21:39.457Z,9.60
2023-02-12T16:24:29.161Z,9.50
2023-02-12T16:26:59.128Z,9.40
2023-02-12T16:29:27.570Z,9.30
2023-02-12T16:31:59.669Z,9.20
2023-02-12T16:34:35.587Z,9.10
2023-02-12T16:37:48.007Z,9.00
2023-02-12T16:40:37.741Z,9.00
2023-02-12T16:43:25.392Z,8.80
2023-02-12T16:46:06.893Z,8.70
2023-02-12T16:48:40.763Z,8.70
2023-02-12T16:51:25.443Z,8.60
2023-02-12T16:53:57.543Z,8.60
2023-02-12T16:56:28.285Z,8.50
2023-02-12T16:59:00.488Z,8.40
2023-02-12T17:01:31.413Z,8.30
2023-02-12T17:04:02.730Z,8.20
2023-02-12T17:06:32.884Z,8.10
2023-02-12T17:09:02.799Z,8.00
2023-02-12T17:11:31.177Z,7.90
2023-02-12T17:13:59.368Z,7.80
2023-02-12T17:16:31.222Z,7.70
2023-02-12T17:19:00.459Z,7.60
2023-02-12T17:21:30.908Z,7.50
2023-02-12T17:23:59.238Z,7.50
2023-02-12T17:26:29.031Z,7.40
2023-02-12T17:29:05.098Z,7.40
2023-02-12T17:31:33.575Z,7.30
2023-02-12T17:34:01.976Z,7.30
2023-02-12T17:36:30.123Z,7.20
2023-02-12T17:38:58.248Z,7.20
2023-02-12T17:41:27.888Z,7.20
2023-02-12T17:43:56.248Z,7.10
2023-02-12T17:46:27.020Z,7.10
2023-02-12T17:48:55.407Z,7.00
2023-02-12T17:51:23.733Z,7.00
2023-02-12T17:53:52.197Z,6.90
2023-02-12T17:56:25.474Z,6.90
2023-02-12T17:58:55.133Z,6.80
2023-02-12T18:01:25.419Z,6.70
2023-02-12T18:03:55.680Z,6.70
2023-02-12T18:06:26.966Z,6.60
2023-02-12T18:08:56.484Z,6.60
2023-02-12T18:11:25.320Z,6.60
2023-02-12T18:13:56.751Z,6.50
2023-02-12T18:16:27.780Z,6.50
2023-02-12T18:18:57.149Z,6.40
2023-02-12T18:21:25.369Z,6.40
2023-02-12T18:23:55.467Z,6.30
2023-02-12T18:26:25.087Z,6.20
2023-02-12T18:28:54.908Z,6.20
2023-02-12T18:31:26.798Z,6.10
2023-02-12T18:33:55.126Z,6.10
2023-02-12T18:36:24.036Z,6.00
2023-02-12T18:38:53.637Z,6.00
2023-02-12T18:41:25.068Z,5.90
2023-02-12T18:43:55.623Z,5.80
2023-02-12T18:46:26.746Z,5.80
2023-02-12T18:48:55.679Z,5.70
2023-02-12T18:51:26.419Z,5.60
2023-02-12T18:54:01.573Z,5.50
2023-02-12T18:56:31.356Z,5.50
2023-02-12T18:59:04.637Z,5.40
2023-02-12T19:01:34.682Z,5.30
2023-02-12T19:04:05.907Z,5.30
2023-02-12T19:06:40.649Z,5.20
2023-02-12T19:09:09.605Z,5.10
2023-02-12T19:11:37.876Z,5.00
2023-02-12T19:14:07.609Z,4.90
2023-02-12T19:16:36.064Z,4.80
2023-02-12T19:19:04.546Z,4.70
2023-02-12T19:21:32.914Z,4.60
2023-02-12T19:24:03.403Z,4.50
2023-02-12T19:26:34.085Z,4.40
2023-02-12T19:29:03.266Z,4.30
2023-02-12T19:31:35.175Z,4.20
2023-02-12T19:34:06.960Z,4.10
2023-02-12T19:36:38.038Z,4.00
2023-02-12T19:39:07.346Z,4.00
2023-02-12T19:41:40.694Z,3.90
2023-02-12T19:44:13.294Z,3.90
2023-02-12T19:46:43.950Z,3.80
2023-02-12T19:49:17.105Z,3.80
2023-02-12T19:51:45.983Z,3.70
2023-02-12T19:54:16.971Z,3.70
2023-02-12T19:56:45.740Z,3.60
2023-02-12T19:59:17.477Z,3.50
2023-02-12T20:01:48.459Z,3.50
2023-02-12T20:04:19.838Z,3.40
2023-02-12T20:06:50.888Z,3.30
2023-02-12T20:09:20.580Z,3.30
2023-02-12T20:11:49.221Z,3.20
2023-02-12T20:14:17.703Z,3.20
2023-02-12T20:16:47.920Z,3.10
2023-02-12T20:19:23.017Z,3.10
2023-02-12T20:21:55.194Z,3.00
2023-02-12T20:24:24.724Z,2.90
2023-02-12T20:26:53.502Z,2.80
2023-02-12T20:29:22.329Z,2.80
2023-02-12T20:31:52.422Z,2.70
2023-02-12T20:34:22.247Z,2.70
2023-02-12T20:36:50.567Z,2.60
2023-02-12T20:39:21.249Z,2.60
2023-02-12T20:41:50.439Z,2.60
2023-02-12T20:44:21.548Z,2.50
2023-02-12T20:46:56.528Z,2.50
2023-02-12T20:49:26.552Z,2.40
2023-02-12T20:51:55.083Z,2.40
2023-02-12T20:54:23.449Z,2.40
2023-02-12T20:56:53.052Z,2.30
2023-02-12T20:59:21.347Z,2.20
2023-02-12T21:01:50.968Z,2.20
2023-02-12T21:04:20.853Z,2.10
2023-02-12T21:06:52.067Z,2.10
2023-02-12T21:09:20.497Z,2.10
2023-02-12T21:11:49.702Z,2.00
2023-02-12T21:14:22.333Z,2.00
2023-02-12T21:16:54.779Z,2.00
2023-02-12T21:19:24.259Z,2.00
2023-02-12T21:21:52.631Z,2.00
2023-02-12T21:24:24.278Z,1.90
2023-02-12T21:26:54.212Z,1.90
2023-02-12T21:29:23.314Z,1.90
2023-02-12T21:31:53.070Z,1.90
2023-02-12T21:34:23.766Z,1.80
2023-02-12T21:36:56.350Z,1.70
2023-02-12T21:39:32.238Z,1.70
2023-02-12T21:42:03.050Z,1.70
2023-02-12T21:44:32.955Z,1.60
2023-02-12T21:47:07.357Z,1.60
2023-02-12T21:49:35.893Z,1.50
2023-02-12T21:52:06.567Z,1.50
2023-02-12T21:54:34.949Z,1.50
2023-02-12T21:57:03.304Z,1.50
2023-02-12T21:59:32.510Z,1.50
2023-02-12T22:02:02.641Z,1.50
2023-02-12T22:04:30.937Z,1.50
2023-02-12T22:07:03.567Z,1.50
2023-02-12T22:09:32.004Z,1.50
2023-02-12T22:12:00.440Z,1.40
2023-02-12T22:14:28.656Z,1.40
2023-02-12T22:16:56.772Z,1.40
2023-02-12T22:19:26.433Z,1.40
2023-02-12T22:21:54.539Z,1.40
2023-02-12T22:24:22.791Z,1.40
2023-02-12T22:26:51.057Z,1.30
2023-02-12T22:29:19.497Z,1.30
2023-02-12T22:31:48.680Z,1.30
2023-02-12T22:34:19.228Z,1.30
2023-02-12T22:36:49.368Z,1.30
2023-02-12T22:39:18.537Z,1.20
2023-02-12T22:41:47.789Z,1.20
2023-02-12T22:44:19.463Z,1.20
2023-02-12T22:46:49.760Z,1.10
2023-02-12T22:49:18.347Z,1.10
2023-02-12T22:51:47.922Z,1.10
2023-02-12T22:54:18.818Z,1.00
2023-02-12T22:56:50.095Z,1.00
2023-02-12T22:59:18.458Z,1.00
2023-02-12T23:01:46.653Z,0.90
2023-02-12T23:04:17.381Z,0.90
2023-02-12T23:06:46.156Z,0.80
2023-02-12T23:09:18.923Z,0.80
2023-02-12T23:11:47.693Z,0.80
2023-02-12T23:14:16.206Z,0.70
2023-02-12T23:16:44.753Z,0.80
2023-02-12T23:19:13.596Z,0.80
2023-02-12T23:21:42.280Z,0.70
2023-02-12T23:24:16.098Z,0.70
2023-02-12T23:26:44.347Z,0.70
2023-02-12T23:29:12.475Z,0.60
2023-02-12T23:31:40.920Z,0.60
2023-02-12T23:34:09.413Z,0.50
2023-02-12T23:36:37.563Z,0.50
2023-02-12T23:39:06.208Z,0.50
2023-02-12T23:41:36.166Z,0.50
2023-02-12T23:44:04.716Z,0.50
2023-02-12T23:46:33.066Z,0.50
2023-02-12T23:49:01.396Z,0.50
2023-02-12T23:51:29.729Z,0.50
2023-02-12T23:53:57.921Z,0.50
2023-02-12T23:56:26.516Z,0.50
2023-02-12T23:58:58.338Z,0.40
